sensor_id;sensor_type;location;lat;lon;timestamp;P1;durP1;ratioP1;P2;durP2;ratioP2
21018;SDS011;10667;51.056;3.732;2023-07-28T00:00:33;5.00;;;4.03;;
21018;SDS011;10667;51.056;3.732;2023-07-28T00:02:59;9.15;;;4.75;;
21018;SDS011;10667;51.056;3.732;2023-07-28T00:05:25;9.40;;;5.10;;
21018;SDS011;10667;51.056;3.732;2023-07-28T00:07:51;8.70;;;4.85;;
21018;SDS011;10667;51.056;3.732;2023-07-28T00:10:17;6.40;;;5.18;;
21018;SDS011;10667;51.056;3.732;2023-07-28T00:12:43;7.00;;;5.10;;
21018;SDS011;10667;51.056;3.732;2023-07-28T00:15:08;8.35;;;5.38;;
21018;SDS011;10667;51.056;3.732;2023-07-28T00:17:34;6.45;;;4.75;;
21018;SDS011;10667;51.056;3.732;2023-07-28T00:20:00;10.80;;;5.18;;
21018;SDS011;10667;51.056;3.732;2023-07-28T00:22:26;6.78;;;5.00;;
21018;SDS011;10667;51.056;3.732;2023-07-28T00:24:52;9.02;;;5.22;;
21018;SDS011;10667;51.056;3.732;2023-07-28T00:27:17;7.40;;;5.20;;
21018;SDS011;10667;51.056;3.732;2023-07-28T00:29:43;5.68;;;4.80;;
21018;SDS011;10667;51.056;3.732;2023-07-28T00:32:09;8.23;;;4.95;;
21018;SDS011;10667;51.056;3.732;2023-07-28T00:34:34;4.78;;;4.38;;
21018;SDS011;10667;51.056;3.732;2023-07-28T00:37:00;7.10;;;5.63;;
21018;SDS011;10667;51.056;3.732;2023-07-28T00:39:26;7.38;;;5.07;;
21018;SDS011;10667;51.056;3.732;2023-07-28T00:41:51;6.43;;;5.03;;
21018;SDS011;10667;51.056;3.732;2023-07-28T00:44:17;6.78;;;5.30;;
21018;SDS011;10667;51.056;3.732;2023-07-28T00:46:43;5.70;;;4.57;;
21018;SDS011;10667;51.056;3.732;2023-07-28T00:49:10;6.95;;;5.20;;
21018;SDS011;10667;51.056;3.732;2023-07-28T00:51:36;6.63;;;6.00;;
21018;SDS011;10667;51.056;3.732;2023-07-28T00:54:02;5.57;;;4.97;;
21018;SDS011;10667;51.056;3.732;2023-07-28T00:56:30;5.78;;;5.18;;
21018;SDS011;10667;51.056;3.732;2023-07-28T00:58:57;10.55;;;5.88;;
21018;SDS011;10667;51.056;3.732;2023-07-28T01:01:23;9.27;;;5.03;;
21018;SDS011;10667;51.056;3.732;2023-07-28T01:03:49;5.97;;;5.25;;
21018;SDS011;10667;51.056;3.732;2023-07-28T01:06:20;6.82;;;5.00;;
21018;SDS011;10667;51.056;3.732;2023-07-28T01:08:59;5.88;;;4.97;;
21018;SDS011;10667;51.056;3.732;2023-07-28T01:11:30;5.30;;;4.85;;
21018;SDS011;10667;51.056;3.732;2023-07-28T01:13:56;6.93;;;5.63;;
21018;SDS011;10667;51.056;3.732;2023-07-28T01:16:21;6.35;;;5.55;;
21018;SDS011;10667;51.056;3.732;2023-07-28T01:18:47;7.05;;;5.75;;
21018;SDS011;10667;51.056;3.732;2023-07-28T01:21:26;8.02;;;6.13;;
21018;SDS011;10667;51.056;3.732;2023-07-28T01:26:37;6.22;;;5.25;;
21018;SDS011;10667;51.056;3.732;2023-07-28T01:29:04;9.35;;;5.13;;
21018;SDS011;10667;51.056;3.732;2023-07-28T01:31:31;7.18;;;4.55;;
21018;SDS011;10667;51.056;3.732;2023-07-28T01:33:57;5.32;;;4.78;;
21018;SDS011;10667;51.056;3.732;2023-07-28T01:36:22;7.00;;;5.13;;
21018;SDS011;10667;51.056;3.732;2023-07-28T01:38:48;7.53;;;5.28;;
21018;SDS011;10667;51.056;3.732;2023-07-28T01:41:14;7.18;;;4.60;;
21018;SDS011;10667;51.056;3.732;2023-07-28T01:43:39;8.68;;;4.57;;
21018;SDS011;10667;51.056;3.732;2023-07-28T01:46:06;6.70;;;4.50;;
21018;SDS011;10667;51.056;3.732;2023-07-28T01:48:32;6.68;;;4.50;;
21018;SDS011;10667;51.056;3.732;2023-07-28T01:50:58;5.57;;;4.45;;
21018;SDS011;10667;51.056;3.732;2023-07-28T01:53:24;6.55;;;5.10;;
21018;SDS011;10667;51.056;3.732;2023-07-28T01:55:50;6.60;;;4.95;;
21018;SDS011;10667;51.056;3.732;2023-07-28T01:58:15;9.35;;;4.78;;
21018;SDS011;10667;51.056;3.732;2023-07-28T02:00:41;7.13;;;4.72;;
21018;SDS011;10667;51.056;3.732;2023-07-28T02:03:06;9.15;;;4.63;;
21018;SDS011;10667;51.056;3.732;2023-07-28T02:05:32;8.50;;;4.90;;
21018;SDS011;10667;51.056;3.732;2023-07-28T02:07:58;6.55;;;4.40;;
21018;SDS011;10667;51.056;3.732;2023-07-28T02:10:23;5.82;;;4.50;;
21018;SDS011;10667;51.056;3.732;2023-07-28T02:12:50;8.75;;;5.10;;
21018;SDS011;10667;51.056;3.732;2023-07-28T02:15:16;8.10;;;5.35;;
21018;SDS011;10667;51.056;3.732;2023-07-28T02:17:42;7.63;;;5.00;;
21018;SDS011;10667;51.056;3.732;2023-07-28T02:20:08;8.48;;;5.40;;
21018;SDS011;10667;51.056;3.732;2023-07-28T02:22:41;6.70;;;4.60;;
21018;SDS011;10667;51.056;3.732;2023-07-28T02:25:07;6.07;;;5.20;;
21018;SDS011;10667;51.056;3.732;2023-07-28T02:27:33;6.20;;;5.20;;
21018;SDS011;10667;51.056;3.732;2023-07-28T02:29:59;9.00;;;5.38;;
21018;SDS011;10667;51.056;3.732;2023-07-28T02:32:26;5.55;;;4.70;;
21018;SDS011;10667;51.056;3.732;2023-07-28T02:34:53;5.85;;;4.43;;
21018;SDS011;10667;51.056;3.732;2023-07-28T02:37:19;8.48;;;4.97;;
21018;SDS011;10667;51.056;3.732;2023-07-28T02:39:45;8.50;;;4.43;;
21018;SDS011;10667;51.056;3.732;2023-07-28T02:42:11;6.38;;;5.32;;
21018;SDS011;10667;51.056;3.732;2023-07-28T02:44:37;5.97;;;4.40;;
21018;SDS011;10667;51.056;3.732;2023-07-28T02:47:03;5.10;;;4.32;;
21018;SDS011;10667;51.056;3.732;2023-07-28T02:49:29;6.93;;;4.10;;
21018;SDS011;10667;51.056;3.732;2023-07-28T02:51:54;6.65;;;3.92;;
21018;SDS011;10667;51.056;3.732;2023-07-28T02:54:20;7.38;;;4.07;;
21018;SDS011;10667;51.056;3.732;2023-07-28T02:56:48;6.72;;;4.10;;
21018;SDS011;10667;51.056;3.732;2023-07-28T02:59:14;6.97;;;3.85;;
21018;SDS011;10667;51.056;3.732;2023-07-28T03:01:40;5.63;;;3.50;;
21018;SDS011;10667;51.056;3.732;2023-07-28T03:04:05;4.45;;;3.63;;
21018;SDS011;10667;51.056;3.732;2023-07-28T03:06:31;7.15;;;4.05;;
21018;SDS011;10667;51.056;3.732;2023-07-28T03:08:58;3.53;;;3.20;;
21018;SDS011;10667;51.056;3.732;2023-07-28T03:11:24;3.97;;;3.53;;
21018;SDS011;10667;51.056;3.732;2023-07-28T03:13:49;6.38;;;3.70;;
21018;SDS011;10667;51.056;3.732;2023-07-28T03:16:15;5.15;;;3.30;;
21018;SDS011;10667;51.056;3.732;2023-07-28T03:18:40;3.53;;;3.17;;
21018;SDS011;10667;51.056;3.732;2023-07-28T03:21:07;7.03;;;3.00;;
21018;SDS011;10667;51.056;3.732;2023-07-28T03:23:33;6.93;;;3.20;;
21018;SDS011;10667;51.056;3.732;2023-07-28T03:25:59;3.17;;;2.60;;
21018;SDS011;10667;51.056;3.732;2023-07-28T03:28:25;3.70;;;2.60;;
21018;SDS011;10667;51.056;3.732;2023-07-28T03:30:50;2.72;;;2.53;;
21018;SDS011;10667;51.056;3.732;2023-07-28T03:33:16;8.63;;;2.22;;
21018;SDS011;10667;51.056;3.732;2023-07-28T03:35:42;2.90;;;2.45;;
21018;SDS011;10667;51.056;3.732;2023-07-28T03:38:07;3.45;;;2.40;;
21018;SDS011;10667;51.056;3.732;2023-07-28T03:40:33;3.65;;;2.45;;
21018;SDS011;10667;51.056;3.732;2023-07-28T03:42:58;3.35;;;2.25;;
21018;SDS011;10667;51.056;3.732;2023-07-28T03:45:24;4.15;;;2.42;;
21018;SDS011;10667;51.056;3.732;2023-07-28T03:47:50;3.00;;;2.42;;
21018;SDS011;10667;51.056;3.732;2023-07-28T03:50:16;2.72;;;2.10;;
21018;SDS011;10667;51.056;3.732;2023-07-28T03:52:41;2.42;;;2.10;;
21018;SDS011;10667;51.056;3.732;2023-07-28T03:55:07;2.83;;;2.33;;
21018;SDS011;10667;51.056;3.732;2023-07-28T03:57:33;3.13;;;2.38;;
21018;SDS011;10667;51.056;3.732;2023-07-28T03:59:58;2.05;;;1.85;;
21018;SDS011;10667;51.056;3.732;2023-07-28T04:02:24;3.90;;;1.88;;
21018;SDS011;10667;51.056;3.732;2023-07-28T04:04:53;4.10;;;1.88;;
21018;SDS011;10667;51.056;3.732;2023-07-28T04:07:22;3.92;;;1.92;;
21018;SDS011;10667;51.056;3.732;2023-07-28T04:09:47;4.03;;;2.10;;
21018;SDS011;10667;51.056;3.732;2023-07-28T04:12:13;4.85;;;2.20;;
21018;SDS011;10667;51.056;3.732;2023-07-28T04:14:39;2.38;;;2.13;;
21018;SDS011;10667;51.056;3.732;2023-07-28T04:17:05;3.22;;;2.35;;
21018;SDS011;10667;51.056;3.732;2023-07-28T04:19:32;3.58;;;2.28;;
21018;SDS011;10667;51.056;3.732;2023-07-28T04:21:59;3.95;;;2.10;;
21018;SDS011;10667;51.056;3.732;2023-07-28T04:24:25;2.17;;;2.00;;
21018;SDS011;10667;51.056;3.732;2023-07-28T04:26:52;3.17;;;2.40;;
21018;SDS011;10667;51.056;3.732;2023-07-28T04:29:18;3.15;;;1.98;;
21018;SDS011;10667;51.056;3.732;2023-07-28T04:31:44;2.40;;;2.20;;
21018;SDS011;10667;51.056;3.732;2023-07-28T04:34:09;2.42;;;2.22;;
21018;SDS011;10667;51.056;3.732;2023-07-28T04:36:35;4.82;;;2.70;;
21018;SDS011;10667;51.056;3.732;2023-07-28T04:39:00;4.13;;;2.75;;
21018;SDS011;10667;51.056;3.732;2023-07-28T04:41:26;3.20;;;2.40;;
21018;SDS011;10667;51.056;3.732;2023-07-28T04:43:52;2.90;;;2.60;;
21018;SDS011;10667;51.056;3.732;2023-07-28T04:46:18;3.72;;;2.63;;
21018;SDS011;10667;51.056;3.732;2023-07-28T04:48:43;4.97;;;3.03;;
21018;SDS011;10667;51.056;3.732;2023-07-28T04:51:11;6.63;;;3.08;;
21018;SDS011;10667;51.056;3.732;2023-07-28T04:53:36;3.42;;;3.13;;
21018;SDS011;10667;51.056;3.732;2023-07-28T04:56:02;3.97;;;2.90;;
21018;SDS011;10667;51.056;3.732;2023-07-28T04:58:28;4.60;;;3.25;;
21018;SDS011;10667;51.056;3.732;2023-07-28T05:00:54;4.60;;;3.70;;
21018;SDS011;10667;51.056;3.732;2023-07-28T05:03:20;5.18;;;3.80;;
21018;SDS011;10667;51.056;3.732;2023-07-28T05:05:45;4.50;;;3.80;;
21018;SDS011;10667;51.056;3.732;2023-07-28T05:08:11;4.60;;;3.67;;
21018;SDS011;10667;51.056;3.732;2023-07-28T05:10:37;3.80;;;3.35;;
21018;SDS011;10667;51.056;3.732;2023-07-28T05:13:02;4.05;;;3.40;;
21018;SDS011;10667;51.056;3.732;2023-07-28T05:15:31;4.63;;;3.22;;
21018;SDS011;10667;51.056;3.732;2023-07-28T05:17:56;4.05;;;3.20;;
21018;SDS011;10667;51.056;3.732;2023-07-28T05:20:22;5.35;;;3.47;;
21018;SDS011;10667;51.056;3.732;2023-07-28T05:22:47;3.45;;;3.15;;
21018;SDS011;10667;51.056;3.732;2023-07-28T05:25:13;4.53;;;4.03;;
21018;SDS011;10667;51.056;3.732;2023-07-28T05:27:39;5.40;;;3.75;;
21018;SDS011;10667;51.056;3.732;2023-07-28T05:30:05;5.22;;;4.55;;
21018;SDS011;10667;51.056;3.732;2023-07-28T05:32:31;9.70;;;4.20;;
21018;SDS011;10667;51.056;3.732;2023-07-28T05:34:57;4.35;;;3.95;;
21018;SDS011;10667;51.056;3.732;2023-07-28T05:37:23;5.85;;;4.78;;
21018;SDS011;10667;51.056;3.732;2023-07-28T05:39:49;6.10;;;4.82;;
21018;SDS011;10667;51.056;3.732;2023-07-28T05:42:15;5.22;;;4.13;;
21018;SDS011;10667;51.056;3.732;2023-07-28T05:44:40;5.95;;;5.15;;
21018;SDS011;10667;51.056;3.732;2023-07-28T05:47:06;8.65;;;5.03;;
21018;SDS011;10667;51.056;3.732;2023-07-28T05:49:32;6.72;;;5.10;;
21018;SDS011;10667;51.056;3.732;2023-07-28T05:51:58;10.35;;;5.80;;
21018;SDS011;10667;51.056;3.732;2023-07-28T05:54:23;7.32;;;4.90;;
21018;SDS011;10667;51.056;3.732;2023-07-28T05:56:49;7.10;;;4.95;;
21018;SDS011;10667;51.056;3.732;2023-07-28T05:59:15;5.00;;;4.47;;
21018;SDS011;10667;51.056;3.732;2023-07-28T06:01:41;5.75;;;4.65;;
21018;SDS011;10667;51.056;3.732;2023-07-28T06:04:06;5.00;;;4.45;;
21018;SDS011;10667;51.056;3.732;2023-07-28T06:06:32;5.10;;;3.92;;
21018;SDS011;10667;51.056;3.732;2023-07-28T06:08:58;5.28;;;4.10;;
21018;SDS011;10667;51.056;3.732;2023-07-28T06:11:23;4.10;;;3.28;;
21018;SDS011;10667;51.056;3.732;2023-07-28T06:13:49;5.47;;;3.47;;
21018;SDS011;10667;51.056;3.732;2023-07-28T06:16:15;4.10;;;2.58;;
21018;SDS011;10667;51.056;3.732;2023-07-28T06:18:41;5.95;;;3.20;;
21018;SDS011;10667;51.056;3.732;2023-07-28T06:21:06;8.45;;;4.10;;
21018;SDS011;10667;51.056;3.732;2023-07-28T06:23:32;6.30;;;3.67;;
21018;SDS011;10667;51.056;3.732;2023-07-28T06:25:58;5.57;;;3.50;;
21018;SDS011;10667;51.056;3.732;2023-07-28T06:28:24;5.72;;;3.63;;
21018;SDS011;10667;51.056;3.732;2023-07-28T06:30:53;6.88;;;3.83;;
21018;SDS011;10667;51.056;3.732;2023-07-28T06:33:20;7.82;;;4.38;;
21018;SDS011;10667;51.056;3.732;2023-07-28T06:35:46;9.27;;;4.20;;
21018;SDS011;10667;51.056;3.732;2023-07-28T06:38:12;5.30;;;4.03;;
21018;SDS011;10667;51.056;3.732;2023-07-28T06:40:38;6.00;;;3.72;;
21018;SDS011;10667;51.056;3.732;2023-07-28T06:43:03;8.50;;;3.95;;
21018;SDS011;10667;51.056;3.732;2023-07-28T06:45:29;6.53;;;3.60;;
21018;SDS011;10667;51.056;3.732;2023-07-28T06:47:55;6.07;;;4.20;;
21018;SDS011;10667;51.056;3.732;2023-07-28T06:50:20;7.07;;;3.97;;
21018;SDS011;10667;51.056;3.732;2023-07-28T06:52:46;6.10;;;4.40;;
21018;SDS011;10667;51.056;3.732;2023-07-28T06:55:13;7.82;;;4.07;;
21018;SDS011;10667;51.056;3.732;2023-07-28T06:57:39;6.35;;;4.40;;
21018;SDS011;10667;51.056;3.732;2023-07-28T07:00:06;6.25;;;4.00;;
21018;SDS011;10667;51.056;3.732;2023-07-28T07:02:34;5.95;;;3.65;;
21018;SDS011;10667;51.056;3.732;2023-07-28T07:05:00;8.15;;;3.80;;
21018;SDS011;10667;51.056;3.732;2023-07-28T07:07:26;6.22;;;3.55;;
21018;SDS011;10667;51.056;3.732;2023-07-28T07:09:52;6.50;;;4.28;;
21018;SDS011;10667;51.056;3.732;2023-07-28T07:12:17;8.68;;;4.05;;
21018;SDS011;10667;51.056;3.732;2023-07-28T07:14:44;6.97;;;4.07;;
21018;SDS011;10667;51.056;3.732;2023-07-28T07:17:10;7.93;;;4.07;;
21018;SDS011;10667;51.056;3.732;2023-07-28T07:19:35;8.88;;;4.28;;
21018;SDS011;10667;51.056;3.732;2023-07-28T07:22:01;9.40;;;4.60;;
21018;SDS011;10667;51.056;3.732;2023-07-28T07:24:27;9.27;;;3.97;;
21018;SDS011;10667;51.056;3.732;2023-07-28T07:26:53;5.28;;;3.75;;
21018;SDS011;10667;51.056;3.732;2023-07-28T07:29:19;5.63;;;3.70;;
21018;SDS011;10667;51.056;3.732;2023-07-28T07:31:45;8.65;;;4.07;;
21018;SDS011;10667;51.056;3.732;2023-07-28T07:34:10;7.05;;;4.20;;
21018;SDS011;10667;51.056;3.732;2023-07-28T07:36:36;7.18;;;4.25;;
21018;SDS011;10667;51.056;3.732;2023-07-28T07:39:02;7.30;;;4.43;;
21018;SDS011;10667;51.056;3.732;2023-07-28T07:41:28;8.05;;;4.03;;
21018;SDS011;10667;51.056;3.732;2023-07-28T07:43:55;5.88;;;3.92;;
21018;SDS011;10667;51.056;3.732;2023-07-28T07:46:21;8.80;;;4.25;;
21018;SDS011;10667;51.056;3.732;2023-07-28T07:48:48;7.47;;;4.38;;
21018;SDS011;10667;51.056;3.732;2023-07-28T07:51:14;7.50;;;4.10;;
21018;SDS011;10667;51.056;3.732;2023-07-28T07:53:41;8.50;;;3.97;;
21018;SDS011;10667;51.056;3.732;2023-07-28T07:56:07;5.32;;;3.83;;
21018;SDS011;10667;51.056;3.732;2023-07-28T07:58:33;7.60;;;3.90;;
21018;SDS011;10667;51.056;3.732;2023-07-28T08:01:00;5.32;;;3.60;;
21018;SDS011;10667;51.056;3.732;2023-07-28T08:03:26;7.13;;;3.95;;
21018;SDS011;10667;51.056;3.732;2023-07-28T08:05:52;4.80;;;3.90;;
21018;SDS011;10667;51.056;3.732;2023-07-28T08:08:18;5.43;;;3.67;;
21018;SDS011;10667;51.056;3.732;2023-07-28T08:10:45;4.70;;;3.47;;
21018;SDS011;10667;51.056;3.732;2023-07-28T08:13:17;6.80;;;4.20;;
21018;SDS011;10667;51.056;3.732;2023-07-28T08:15:43;10.15;;;5.32;;
21018;SDS011;10667;51.056;3.732;2023-07-28T08:18:09;5.60;;;4.70;;
21018;SDS011;10667;51.056;3.732;2023-07-28T08:20:36;6.38;;;4.53;;
21018;SDS011;10667;51.056;3.732;2023-07-28T08:23:01;5.18;;;3.92;;
21018;SDS011;10667;51.056;3.732;2023-07-28T08:25:27;6.03;;;4.35;;
21018;SDS011;10667;51.056;3.732;2023-07-28T08:27:52;6.28;;;4.57;;
21018;SDS011;10667;51.056;3.732;2023-07-28T08:30:18;6.30;;;4.25;;
21018;SDS011;10667;51.056;3.732;2023-07-28T08:32:44;7.80;;;4.90;;
21018;SDS011;10667;51.056;3.732;2023-07-28T08:35:10;9.45;;;4.35;;
21018;SDS011;10667;51.056;3.732;2023-07-28T08:37:35;8.18;;;4.75;;
21018;SDS011;10667;51.056;3.732;2023-07-28T08:40:02;7.35;;;5.40;;
21018;SDS011;10667;51.056;3.732;2023-07-28T08:42:30;12.48;;;5.28;;
21018;SDS011;10667;51.056;3.732;2023-07-28T08:45:00;5.55;;;4.93;;
21018;SDS011;10667;51.056;3.732;2023-07-28T08:47:26;9.90;;;4.60;;
21018;SDS011;10667;51.056;3.732;2023-07-28T08:49:52;5.95;;;4.32;;
21018;SDS011;10667;51.056;3.732;2023-07-28T08:52:18;5.78;;;4.28;;
21018;SDS011;10667;51.056;3.732;2023-07-28T08:54:44;6.72;;;4.45;;
21018;SDS011;10667;51.056;3.732;2023-07-28T08:57:09;6.93;;;4.00;;
21018;SDS011;10667;51.056;3.732;2023-07-28T08:59:35;5.25;;;3.70;;
21018;SDS011;10667;51.056;3.732;2023-07-28T09:02:03;5.85;;;3.80;;
21018;SDS011;10667;51.056;3.732;2023-07-28T09:04:31;7.15;;;3.40;;
21018;SDS011;10667;51.056;3.732;2023-07-28T09:06:57;6.78;;;3.30;;
21018;SDS011;10667;51.056;3.732;2023-07-28T09:09:23;5.18;;;3.75;;
21018;SDS011;10667;51.056;3.732;2023-07-28T09:11:52;7.97;;;3.83;;
21018;SDS011;10667;51.056;3.732;2023-07-28T09:14:19;5.28;;;3.40;;
21018;SDS011;10667;51.056;3.732;2023-07-28T09:16:46;5.40;;;3.35;;
21018;SDS011;10667;51.056;3.732;2023-07-28T09:19:12;3.75;;;3.17;;
21018;SDS011;10667;51.056;3.732;2023-07-28T09:21:39;5.68;;;2.97;;
21018;SDS011;10667;51.056;3.732;2023-07-28T09:24:08;3.40;;;2.78;;
21018;SDS011;10667;51.056;3.732;2023-07-28T09:29:19;5.32;;;2.45;;
21018;SDS011;10667;51.056;3.732;2023-07-28T09:31:46;4.28;;;2.63;;
21018;SDS011;10667;51.056;3.732;2023-07-28T09:34:13;3.70;;;2.20;;
21018;SDS011;10667;51.056;3.732;2023-07-28T09:36:58;4.85;;;2.38;;
21018;SDS011;10667;51.056;3.732;2023-07-28T09:39:25;4.75;;;2.25;;
21018;SDS011;10667;51.056;3.732;2023-07-28T09:41:51;3.75;;;2.25;;
21018;SDS011;10667;51.056;3.732;2023-07-28T09:44:17;4.10;;;2.60;;
21018;SDS011;10667;51.056;3.732;2023-07-28T09:49:15;3.03;;;2.40;;
21018;SDS011;10667;51.056;3.732;2023-07-28T09:51:48;3.53;;;2.60;;
21018;SDS011;10667;51.056;3.732;2023-07-28T09:54:20;4.00;;;2.53;;
21018;SDS011;10667;51.056;3.732;2023-07-28T09:56:52;4.93;;;3.38;;
21018;SDS011;10667;51.056;3.732;2023-07-28T09:59:21;4.18;;;2.78;;
21018;SDS011;10667;51.056;3.732;2023-07-28T10:02:01;4.97;;;2.35;;
21018;SDS011;10667;51.056;3.732;2023-07-28T10:04:27;6.88;;;2.17;;
21018;SDS011;10667;51.056;3.732;2023-07-28T10:06:55;7.53;;;2.00;;
21018;SDS011;10667;51.056;3.732;2023-07-28T10:09:22;4.60;;;2.30;;
21018;SDS011;10667;51.056;3.732;2023-07-28T10:11:50;2.78;;;1.90;;
21018;SDS011;10667;51.056;3.732;2023-07-28T10:14:25;3.60;;;2.28;;
21018;SDS011;10667;51.056;3.732;2023-07-28T10:16:53;3.15;;;1.88;;
21018;SDS011;10667;51.056;3.732;2023-07-28T10:19:20;3.50;;;1.90;;
21018;SDS011;10667;51.056;3.732;2023-07-28T10:21:46;2.97;;;1.70;;
21018;SDS011;10667;51.056;3.732;2023-07-28T10:24:11;4.80;;;2.25;;
21018;SDS011;10667;51.056;3.732;2023-07-28T10:26:40;3.03;;;1.70;;
21018;SDS011;10667;51.056;3.732;2023-07-28T10:29:12;1.75;;;1.60;;
21018;SDS011;10667;51.056;3.732;2023-07-28T10:31:49;5.07;;;1.88;;
21018;SDS011;10667;51.056;3.732;2023-07-28T10:34:17;4.20;;;1.70;;
21018;SDS011;10667;51.056;3.732;2023-07-28T10:36:43;3.00;;;1.55;;
21018;SDS011;10667;51.056;3.732;2023-07-28T10:39:14;4.68;;;1.40;;
21018;SDS011;10667;51.056;3.732;2023-07-28T10:44:29;1.98;;;1.20;;
21018;SDS011;10667;51.056;3.732;2023-07-28T10:46:55;1.65;;;0.82;;
21018;SDS011;10667;51.056;3.732;2023-07-28T10:49:21;2.65;;;1.10;;
21018;SDS011;10667;51.056;3.732;2023-07-28T10:51:50;2.22;;;1.20;;
21018;SDS011;10667;51.056;3.732;2023-07-28T10:54:16;3.63;;;1.17;;
21018;SDS011;10667;51.056;3.732;2023-07-28T10:56:44;1.85;;;1.08;;
21018;SDS011;10667;51.056;3.732;2023-07-28T10:59:11;2.97;;;1.20;;
21018;SDS011;10667;51.056;3.732;2023-07-28T11:01:37;1.42;;;1.00;;
21018;SDS011;10667;51.056;3.732;2023-07-28T11:04:08;3.85;;;1.13;;
21018;SDS011;10667;51.056;3.732;2023-07-28T11:06:46;1.90;;;0.90;;
21018;SDS011;10667;51.056;3.732;2023-07-28T11:09:14;1.67;;;1.13;;
21018;SDS011;10667;51.056;3.732;2023-07-28T11:11:41;2.08;;;1.30;;
21018;SDS011;10667;51.056;3.732;2023-07-28T11:14:08;3.95;;;1.40;;
21018;SDS011;10667;51.056;3.732;2023-07-28T11:16:38;2.58;;;1.13;;
21018;SDS011;10667;51.056;3.732;2023-07-28T11:19:09;1.00;;;0.88;;
21018;SDS011;10667;51.056;3.732;2023-07-28T11:21:37;3.28;;;1.50;;
21018;SDS011;10667;51.056;3.732;2023-07-28T11:24:03;3.53;;;1.40;;
21018;SDS011;10667;51.056;3.732;2023-07-28T11:26:29;2.83;;;1.63;;
21018;SDS011;10667;51.056;3.732;2023-07-28T11:28:55;3.53;;;1.50;;
21018;SDS011;10667;51.056;3.732;2023-07-28T11:31:25;1.40;;;1.30;;
21018;SDS011;10667;51.056;3.732;2023-07-28T11:33:51;2.25;;;1.63;;
21018;SDS011;10667;51.056;3.732;2023-07-28T11:36:26;3.83;;;1.60;;
21018;SDS011;10667;51.056;3.732;2023-07-28T11:38:54;2.95;;;1.52;;
21018;SDS011;10667;51.056;3.732;2023-07-28T11:41:22;2.35;;;1.58;;
21018;SDS011;10667;51.056;3.732;2023-07-28T11:43:49;2.25;;;1.60;;
21018;SDS011;10667;51.056;3.732;2023-07-28T11:49:06;2.58;;;1.30;;
21018;SDS011;10667;51.056;3.732;2023-07-28T11:51:44;1.48;;;1.10;;
21018;SDS011;10667;51.056;3.732;2023-07-28T11:54:12;2.80;;;1.40;;
21018;SDS011;10667;51.056;3.732;2023-07-28T11:56:46;2.40;;;1.50;;
21018;SDS011;10667;51.056;3.732;2023-07-28T11:59:14;2.67;;;1.50;;
21018;SDS011;10667;51.056;3.732;2023-07-28T12:04:26;3.17;;;1.67;;
21018;SDS011;10667;51.056;3.732;2023-07-28T12:07:06;3.22;;;1.80;;
21018;SDS011;10667;51.056;3.732;2023-07-28T12:12:15;4.63;;;1.75;;
21018;SDS011;10667;51.056;3.732;2023-07-28T12:14:41;1.52;;;1.35;;
21018;SDS011;10667;51.056;3.732;2023-07-28T12:17:13;2.88;;;1.77;;
21018;SDS011;10667;51.056;3.732;2023-07-28T12:22:36;4.45;;;1.85;;
21018;SDS011;10667;51.056;3.732;2023-07-28T12:25:03;2.40;;;1.63;;
21018;SDS011;10667;51.056;3.732;2023-07-28T12:27:29;2.35;;;1.60;;
21018;SDS011;10667;51.056;3.732;2023-07-28T12:29:56;1.92;;;1.30;;
21018;SDS011;10667;51.056;3.732;2023-07-28T12:32:21;2.15;;;1.23;;
21018;SDS011;10667;51.056;3.732;2023-07-28T12:34:48;3.10;;;1.20;;
21018;SDS011;10667;51.056;3.732;2023-07-28T12:37:14;1.67;;;1.33;;
21018;SDS011;10667;51.056;3.732;2023-07-28T12:39:40;1.75;;;1.10;;
21018;SDS011;10667;51.056;3.732;2023-07-28T12:42:07;3.70;;;1.15;;
21018;SDS011;10667;51.056;3.732;2023-07-28T12:44:33;4.20;;;1.40;;
21018;SDS011;10667;51.056;3.732;2023-07-28T12:46:59;1.48;;;1.23;;
21018;SDS011;10667;51.056;3.732;2023-07-28T12:49:25;3.95;;;1.35;;
21018;SDS011;10667;51.056;3.732;2023-07-28T12:51:51;4.97;;;1.20;;
21018;SDS011;10667;51.056;3.732;2023-07-28T12:54:16;2.05;;;1.20;;
21018;SDS011;10667;51.056;3.732;2023-07-28T12:56:42;6.97;;;1.85;;
21018;SDS011;10667;51.056;3.732;2023-07-28T12:59:08;4.45;;;1.23;;
21018;SDS011;10667;51.056;3.732;2023-07-28T13:01:35;2.42;;;1.35;;
21018;SDS011;10667;51.056;3.732;2023-07-28T13:04:02;1.45;;;1.10;;
21018;SDS011;10667;51.056;3.732;2023-07-28T13:06:28;6.28;;;1.63;;
21018;SDS011;10667;51.056;3.732;2023-07-28T13:08:53;2.38;;;1.10;;
21018;SDS011;10667;51.056;3.732;2023-07-28T13:11:19;5.40;;;1.15;;
21018;SDS011;10667;51.056;3.732;2023-07-28T13:13:45;1.90;;;1.23;;
21018;SDS011;10667;51.056;3.732;2023-07-28T13:16:10;1.50;;;1.20;;
21018;SDS011;10667;51.056;3.732;2023-07-28T13:18:36;2.03;;;1.50;;
21018;SDS011;10667;51.056;3.732;2023-07-28T13:21:02;1.67;;;1.23;;
21018;SDS011;10667;51.056;3.732;2023-07-28T13:23:28;1.65;;;1.30;;
21018;SDS011;10667;51.056;3.732;2023-07-28T13:25:54;1.52;;;1.23;;
21018;SDS011;10667;51.056;3.732;2023-07-28T13:28:19;3.13;;;1.23;;
21018;SDS011;10667;51.056;3.732;2023-07-28T13:30:45;2.40;;;1.10;;
21018;SDS011;10667;51.056;3.732;2023-07-28T13:33:11;2.80;;;1.50;;
21018;SDS011;10667;51.056;3.732;2023-07-28T13:35:36;1.63;;;1.23;;
21018;SDS011;10667;51.056;3.732;2023-07-28T13:38:02;2.03;;;1.10;;
21018;SDS011;10667;51.056;3.732;2023-07-28T13:40:28;1.25;;;1.15;;
21018;SDS011;10667;51.056;3.732;2023-07-28T13:42:53;2.05;;;1.40;;
21018;SDS011;10667;51.056;3.732;2023-07-28T13:45:19;2.78;;;1.40;;
21018;SDS011;10667;51.056;3.732;2023-07-28T13:47:45;1.70;;;1.13;;
21018;SDS011;10667;51.056;3.732;2023-07-28T13:50:10;3.92;;;1.52;;
21018;SDS011;10667;51.056;3.732;2023-07-28T13:52:36;2.80;;;1.20;;
21018;SDS011;10667;51.056;3.732;2023-07-28T13:55:01;1.23;;;1.13;;
21018;SDS011;10667;51.056;3.732;2023-07-28T13:57:29;1.58;;;1.15;;
21018;SDS011;10667;51.056;3.732;2023-07-28T13:59:56;2.00;;;1.25;;
21018;SDS011;10667;51.056;3.732;2023-07-28T14:02:22;3.33;;;1.20;;
21018;SDS011;10667;51.056;3.732;2023-07-28T14:04:48;2.08;;;1.33;;
21018;SDS011;10667;51.056;3.732;2023-07-28T14:07:13;1.42;;;0.90;;
21018;SDS011;10667;51.056;3.732;2023-07-28T14:09:39;1.20;;;1.05;;
21018;SDS011;10667;51.056;3.732;2023-07-28T14:12:05;2.55;;;1.20;;
21018;SDS011;10667;51.056;3.732;2023-07-28T14:14:31;1.80;;;1.20;;
21018;SDS011;10667;51.056;3.732;2023-07-28T14:16:57;1.90;;;1.30;;
21018;SDS011;10667;51.056;3.732;2023-07-28T14:19:23;3.45;;;1.42;;
21018;SDS011;10667;51.056;3.732;2023-07-28T14:21:48;2.20;;;1.13;;
21018;SDS011;10667;51.056;3.732;2023-07-28T14:24:14;5.63;;;1.35;;
21018;SDS011;10667;51.056;3.732;2023-07-28T14:26:40;2.58;;;1.20;;
21018;SDS011;10667;51.056;3.732;2023-07-28T14:29:05;4.75;;;1.40;;
21018;SDS011;10667;51.056;3.732;2023-07-28T14:31:31;2.15;;;1.30;;
21018;SDS011;10667;51.056;3.732;2023-07-28T14:33:57;1.40;;;0.98;;
21018;SDS011;10667;51.056;3.732;2023-07-28T14:36:22;1.65;;;1.05;;
21018;SDS011;10667;51.056;3.732;2023-07-28T14:38:48;1.45;;;1.00;;
21018;SDS011;10667;51.056;3.732;2023-07-28T14:41:14;1.58;;;0.80;;
21018;SDS011;10667;51.056;3.732;2023-07-28T14:43:39;1.00;;;0.90;;
21018;SDS011;10667;51.056;3.732;2023-07-28T14:46:05;3.22;;;1.10;;
21018;SDS011;10667;51.056;3.732;2023-07-28T14:48:32;2.00;;;0.98;;
21018;SDS011;10667;51.056;3.732;2023-07-28T14:50:57;1.13;;;1.00;;
21018;SDS011;10667;51.056;3.732;2023-07-28T14:53:36;1.95;;;1.30;;
21018;SDS011;10667;51.056;3.732;2023-07-28T14:56:03;3.72;;;1.27;;
21018;SDS011;10667;51.056;3.732;2023-07-28T14:58:30;1.15;;;1.00;;
21018;SDS011;10667;51.056;3.732;2023-07-28T15:00:56;2.72;;;1.30;;
21018;SDS011;10667;51.056;3.732;2023-07-28T15:03:25;1.33;;;0.90;;
21018;SDS011;10667;51.056;3.732;2023-07-28T15:05:52;1.40;;;0.93;;